createdAt,value
2017-11-30T00:01:07.016Z,28.50
2017-11-30T00:03:35.087Z,31.25
2017-11-30T00:06:03.202Z,30.12
2017-11-30T00:08:31.256Z,27.98
2017-11-30T00:11:00.116Z,28.87
2017-11-30T00:13:28.182Z,30.65
2017-11-30T00:15:56.255Z,28.30
2017-11-30T00:18:24.323Z,24.05
2017-11-30T00:20:52.408Z,33.53
2017-11-30T00:23:20.506Z,35.50
2017-11-30T00:25:49.336Z,33.80
2017-11-30T00:28:17.422Z,32.53
2017-11-30T00:30:45.493Z,32.33
2017-11-30T00:33:13.564Z,38.90
2017-11-30T00:35:41.640Z,26.20
2017-11-30T00:38:09.815Z,37.80
2017-11-30T00:40:37.895Z,30.58
2017-11-30T00:43:23.666Z,32.92
2017-11-30T00:45:51.735Z,41.25
2017-11-30T00:48:20.423Z,32.63
2017-11-30T00:50:48.492Z,35.85
2017-11-30T00:53:16.584Z,33.92
2017-11-30T00:55:45.430Z,32.63
2017-11-30T00:58:13.499Z,33.92
2017-11-30T01:00:42.996Z,32.88
2017-11-30T01:03:11.571Z,33.47
2017-11-30T01:05:39.764Z,29.87
2017-11-30T01:08:08.440Z,36.90
2017-11-30T01:10:36.505Z,37.65
2017-11-30T01:13:05.856Z,34.13
2017-11-30T01:15:34.700Z,35.05
2017-11-30T01:18:02.804Z,30.67
2017-11-30T01:20:30.869Z,32.25
2017-11-30T01:22:59.041Z,33.80
2017-11-30T01:25:27.204Z,31.45
2017-11-30T01:27:55.906Z,32.28
2017-11-30T01:30:25.019Z,34.88
2017-11-30T01:32:55.134Z,35.35
2017-11-30T01:35:23.192Z,33.42
2017-11-30T01:37:51.828Z,34.85
2017-11-30T01:40:19.905Z,35.67
2017-11-30T01:42:47.971Z,35.17
2017-11-30T01:45:16.028Z,37.67
2017-11-30T01:47:44.349Z,35.58
2017-11-30T01:50:12.519Z,37.53
2017-11-30T01:52:40.589Z,35.08
2017-11-30T01:55:08.652Z,37.33
2017-11-30T01:57:37.905Z,36.65
2017-11-30T02:00:05.980Z,49.78
2017-11-30T02:02:34.049Z,32.63
2017-11-30T02:05:02.175Z,33.85
2017-11-30T02:07:30.340Z,33.10
2017-11-30T02:09:58.398Z,35.05
2017-11-30T02:12:26.468Z,32.67
2017-11-30T02:14:54.531Z,35.67
2017-11-30T02:17:22.602Z,34.90
2017-11-30T02:19:50.721Z,31.40
2017-11-30T02:22:19.579Z,32.88
2017-11-30T02:24:47.640Z,40.60
2017-11-30T02:27:15.708Z,31.35
2017-11-30T02:29:43.771Z,32.33
2017-11-30T02:32:11.874Z,31.40
2017-11-30T02:34:39.941Z,32.63
2017-11-30T02:37:08.000Z,36.28
2017-11-30T02:39:36.063Z,33.25
2017-11-30T02:42:09.982Z,33.17
2017-11-30T02:44:38.032Z,40.47
2017-11-30T02:47:06.105Z,29.20
2017-11-30T02:49:34.182Z,39.38
2017-11-30T02:52:02.257Z,34.42
2017-11-30T02:54:30.328Z,27.10
2017-11-30T02:56:58.397Z,35.92
2017-11-30T02:59:26.468Z,27.80
2017-11-30T03:01:54.535Z,35.45
2017-11-30T03:04:22.607Z,27.40
2017-11-30T03:06:50.660Z,28.87
2017-11-30T03:09:18.735Z,33.45
2017-11-30T03:11:46.807Z,25.48
2017-11-30T03:14:14.875Z,32.05
2017-11-30T03:16:42.945Z,28.42
2017-11-30T03:19:11.020Z,31.00
2017-11-30T03:21:39.091Z,30.75
2017-11-30T03:24:07.167Z,31.17
2017-11-30T03:26:35.244Z,29.77
2017-11-30T03:29:03.301Z,34.58
2017-11-30T03:31:31.374Z,33.60
2017-11-30T03:33:59.446Z,33.88
2017-11-30T03:36:27.528Z,31.77
2017-11-30T03:38:55.593Z,36.20
2017-11-30T03:41:23.668Z,35.53
2017-11-30T03:43:51.747Z,33.17
2017-11-30T03:46:19.816Z,36.03
2017-11-30T03:48:47.886Z,35.40
2017-11-30T03:51:15.941Z,38.72
2017-11-30T03:53:44.008Z,37.70
2017-11-30T03:56:12.081Z,32.63
2017-11-30T03:58:40.152Z,35.90
2017-11-30T04:01:08.220Z,35.05
2017-11-30T04:03:36.297Z,32.35
2017-11-30T04:06:05.042Z,35.33
2017-11-30T04:08:33.113Z,33.72
2017-11-30T04:11:01.183Z,31.23
2017-11-30T04:13:29.258Z,35.10
2017-11-30T04:15:58.189Z,39.35
2017-11-30T04:18:26.251Z,34.85
2017-11-30T04:20:54.325Z,33.83
2017-11-30T04:23:22.876Z,33.90
2017-11-30T04:25:50.998Z,38.13
2017-11-30T04:28:19.066Z,37.58
2017-11-30T04:30:47.128Z,33.85
2017-11-30T04:33:15.195Z,33.90
2017-11-30T04:35:43.268Z,37.33
2017-11-30T04:38:11.337Z,37.80
2017-11-30T04:40:39.409Z,39.90
2017-11-30T04:43:07.493Z,38.55
2017-11-30T04:45:36.556Z,38.92
2017-11-30T04:48:04.656Z,34.80
2017-11-30T04:50:32.728Z,41.13
2017-11-30T04:53:00.800Z,37.40
2017-11-30T04:55:28.944Z,39.72
2017-11-30T04:57:57.011Z,39.45
2017-11-30T05:00:25.088Z,42.08
2017-11-30T05:02:53.161Z,43.67
2017-11-30T05:05:21.245Z,41.72
2017-11-30T05:07:49.322Z,44.58
2017-11-30T05:10:17.390Z,38.22
2017-11-30T05:12:45.460Z,38.70
2017-11-30T05:15:13.535Z,38.30
2017-11-30T05:17:41.709Z,31.30
2017-11-30T05:20:09.768Z,39.67
2017-11-30T05:22:37.840Z,38.08
2017-11-30T05:25:05.933Z,44.15
2017-11-30T05:27:33.995Z,38.13
2017-11-30T05:30:02.057Z,43.13
2017-11-30T05:32:30.132Z,37.42
2017-11-30T05:34:58.212Z,43.60
2017-11-30T05:37:26.896Z,41.45
2017-11-30T05:39:54.952Z,42.10
2017-11-30T05:42:23.023Z,42.20
2017-11-30T05:44:51.095Z,41.50
2017-11-30T05:47:19.164Z,37.83
2017-11-30T05:49:47.475Z,37.85
2017-11-30T05:52:16.316Z,35.20
2017-11-30T05:54:44.389Z,36.45
2017-11-30T05:57:12.446Z,35.20
2017-11-30T05:59:40.525Z,43.00
2017-11-30T06:02:08.581Z,41.35
2017-11-30T06:04:36.654Z,40.25
2017-11-30T06:07:04.721Z,39.33
2017-11-30T06:09:32.790Z,41.72
2017-11-30T06:12:00.862Z,41.50
2017-11-30T06:14:28.932Z,35.53
2017-11-30T06:16:57.023Z,37.78
2017-11-30T06:19:25.106Z,40.33
2017-11-30T06:21:53.169Z,43.00
2017-11-30T06:24:21.253Z,44.85
2017-11-30T06:26:49.331Z,39.17
2017-11-30T06:29:17.419Z,40.45
2017-11-30T06:31:46.252Z,40.20
2017-11-30T06:34:14.326Z,38.25
2017-11-30T06:36:42.389Z,48.70
2017-11-30T06:39:10.456Z,41.85
2017-11-30T06:41:38.528Z,44.25
2017-11-30T06:44:06.605Z,40.10
2017-11-30T06:46:34.673Z,34.65
2017-11-30T06:49:02.745Z,36.58
2017-11-30T06:51:30.820Z,37.25
2017-11-30T06:53:58.913Z,37.67
2017-11-30T06:56:26.984Z,34.78
2017-11-30T06:58:55.053Z,39.72
2017-11-30T07:01:23.123Z,34.63
2017-11-30T07:03:51.257Z,37.05
2017-11-30T07:06:19.319Z,38.88
2017-11-30T07:08:47.380Z,37.72
2017-11-30T07:11:15.444Z,35.03
2017-11-30T07:13:43.511Z,35.55
2017-11-30T07:16:12.368Z,36.72
2017-11-30T07:18:40.435Z,33.95
2017-11-30T07:21:08.615Z,37.65
2017-11-30T07:23:36.683Z,41.30
2017-11-30T07:26:04.750Z,35.85
2017-11-30T07:28:32.928Z,38.38
2017-11-30T07:31:01.095Z,40.58
2017-11-30T07:33:29.177Z,35.70
2017-11-30T07:35:57.259Z,35.08
2017-11-30T07:38:25.329Z,33.78
2017-11-30T07:40:54.164Z,39.78
2017-11-30T07:43:22.227Z,47.92
2017-11-30T07:45:50.283Z,36.58
2017-11-30T07:48:18.351Z,37.17
2017-11-30T07:50:46.420Z,33.28
2017-11-30T07:53:15.274Z,37.35
2017-11-30T07:55:43.349Z,44.17
2017-11-30T07:58:11.416Z,39.33
2017-11-30T08:00:39.579Z,40.80
2017-11-30T08:03:07.638Z,39.28
2017-11-30T08:05:35.736Z,35.78
2017-11-30T08:08:03.791Z,36.13
2017-11-30T08:10:31.864Z,39.47
2017-11-30T08:12:59.936Z,40.17
2017-11-30T08:15:28.013Z,35.65
2017-11-30T08:17:56.080Z,37.78
2017-11-30T08:20:24.156Z,36.05
2017-11-30T08:22:52.231Z,32.47
2017-11-30T08:25:20.303Z,31.10
2017-11-30T08:27:48.375Z,36.25
2017-11-30T08:30:16.478Z,32.70
2017-11-30T08:32:44.528Z,34.30
2017-11-30T08:35:13.374Z,32.80
2017-11-30T08:37:41.472Z,35.88
2017-11-30T08:40:09.545Z,41.33
2017-11-30T08:42:37.617Z,36.50
2017-11-30T08:45:05.778Z,32.78
2017-11-30T08:47:33.860Z,49.88
2017-11-30T08:50:02.689Z,53.65
2017-11-30T08:52:30.760Z,45.15
2017-11-30T08:54:58.832Z,42.08
2017-11-30T08:57:26.903Z,41.40
2017-11-30T08:59:54.966Z,34.45
2017-11-30T09:02:23.048Z,38.53
2017-11-30T09:04:51.114Z,35.97
2017-11-30T09:07:19.228Z,31.70
2017-11-30T09:09:47.296Z,31.65
2017-11-30T09:12:15.368Z,33.40
2017-11-30T09:14:44.316Z,33.08
2017-11-30T09:17:12.396Z,32.75
2017-11-30T09:19:40.476Z,44.25
2017-11-30T09:22:08.572Z,33.03
2017-11-30T09:24:37.140Z,36.35
2017-11-30T09:27:05.229Z,42.58
2017-11-30T09:29:33.297Z,38.75
2017-11-30T09:32:01.369Z,38.88
2017-11-30T09:34:29.441Z,34.70
2017-11-30T09:36:57.509Z,41.97
2017-11-30T09:39:25.591Z,37.67
2017-11-30T09:41:54.424Z,38.75
2017-11-30T09:44:22.496Z,44.65
2017-11-30T09:46:50.581Z,46.83
2017-11-30T09:49:18.650Z,48.42
2017-11-30T09:51:46.721Z,38.43
2017-11-30T09:54:14.796Z,36.70
2017-11-30T09:56:42.869Z,42.70
2017-11-30T09:59:10.952Z,35.95
2017-11-30T10:01:39.523Z,37.83
2017-11-30T10:04:07.605Z,50.63
2017-11-30T10:06:35.696Z,45.30
2017-11-30T10:09:03.776Z,33.80
2017-11-30T10:11:32.648Z,38.87
2017-11-30T10:14:00.806Z,40.57
2017-11-30T10:16:28.893Z,33.60
2017-11-30T10:18:57.481Z,33.23
2017-11-30T10:21:26.320Z,39.90
2017-11-30T10:23:54.396Z,30.97
2017-11-30T10:26:22.859Z,34.80
2017-11-30T10:28:50.933Z,34.60
2017-11-30T10:31:19.023Z,29.87
2017-11-30T10:33:47.116Z,28.03
2017-11-30T10:36:15.234Z,26.53
2017-11-30T10:38:43.362Z,25.90
2017-11-30T10:41:11.481Z,25.60
2017-11-30T10:43:39.544Z,30.37
2017-11-30T10:46:08.434Z,33.80
2017-11-30T10:48:36.512Z,31.50
2017-11-30T10:51:04.597Z,31.27
2017-11-30T10:53:32.681Z,36.10
2017-11-30T10:56:00.751Z,35.40
2017-11-30T10:58:28.840Z,37.80
2017-11-30T11:00:56.899Z,33.23
2017-11-30T11:03:24.983Z,31.67
2017-11-30T11:05:53.648Z,35.70
2017-11-30T11:08:21.724Z,26.17
2017-11-30T11:10:49.797Z,24.73
2017-11-30T11:13:17.971Z,34.73
2017-11-30T11:15:46.044Z,31.73
2017-11-30T11:18:14.170Z,30.50
2017-11-30T11:20:42.251Z,31.00
2017-11-30T11:23:10.428Z,33.23
2017-11-30T11:25:38.741Z,34.27
2017-11-30T11:28:06.825Z,32.20
2017-11-30T11:30:34.919Z,33.57
2017-11-30T11:33:04.680Z,30.63
2017-11-30T11:35:32.775Z,28.50
2017-11-30T11:38:00.842Z,37.40
2017-11-30T11:40:28.915Z,40.47
2017-11-30T11:42:56.996Z,39.90
2017-11-30T11:45:25.648Z,35.50
2017-11-30T11:47:54.324Z,36.80
2017-11-30T11:50:22.405Z,35.40
2017-11-30T11:52:50.488Z,39.33
2017-11-30T11:55:18.568Z,37.03
2017-11-30T11:57:46.741Z,35.43
2017-11-30T12:00:15.118Z,36.37
2017-11-30T12:02:43.201Z,33.37
2017-11-30T12:05:11.292Z,27.20
2017-11-30T12:07:39.553Z,37.90
2017-11-30T12:10:08.438Z,29.93
2017-11-30T12:12:37.289Z,27.67
2017-11-30T12:15:05.382Z,37.00
2017-11-30T12:17:33.658Z,30.10
2017-11-30T12:20:01.821Z,36.83
2017-11-30T12:22:30.721Z,31.70
2017-11-30T12:24:58.799Z,32.40
2017-11-30T12:27:27.659Z,29.03
2017-11-30T12:29:55.741Z,31.53
2017-11-30T12:32:23.866Z,34.70
2017-11-30T12:34:51.936Z,30.87
2017-11-30T12:37:20.034Z,28.13
2017-11-30T12:39:48.116Z,26.00
2017-11-30T12:42:16.208Z,25.27
2017-11-30T12:44:44.276Z,24.23
2017-11-30T12:47:12.406Z,31.17
2017-11-30T12:49:40.485Z,28.30
2017-11-30T12:52:08.571Z,25.00
2017-11-30T12:54:36.675Z,25.80
2017-11-30T12:57:04.736Z,21.03
2017-11-30T12:59:32.810Z,22.17
2017-11-30T13:02:00.878Z,23.70
2017-11-30T13:04:28.959Z,29.60
2017-11-30T13:06:57.021Z,28.13
2017-11-30T13:09:25.100Z,25.70
2017-11-30T13:11:53.336Z,29.37
2017-11-30T13:14:21.415Z,42.57
2017-11-30T13:16:49.482Z,29.00
2017-11-30T13:19:17.838Z,32.70
2017-11-30T13:21:45.947Z,39.13
2017-11-30T13:24:14.106Z,31.00
2017-11-30T13:26:42.190Z,28.70
2017-11-30T13:29:10.294Z,31.97
2017-11-30T13:31:39.151Z,29.30
2017-11-30T13:34:07.231Z,35.63
2017-11-30T13:36:35.326Z,33.27
2017-11-30T13:39:04.291Z,31.27
2017-11-30T13:41:32.447Z,33.37
2017-11-30T13:44:01.220Z,35.43
2017-11-30T13:46:29.286Z,38.47
2017-11-30T13:48:57.394Z,32.40
2017-11-30T13:51:25.462Z,34.00
2017-11-30T13:53:53.612Z,30.63
2017-11-30T13:56:21.755Z,33.47
2017-11-30T13:58:49.836Z,30.10
2017-11-30T14:01:17.910Z,34.60
2017-11-30T14:03:56.791Z,37.10
2017-11-30T14:06:26.223Z,35.90
2017-11-30T14:08:54.298Z,35.10
2017-11-30T14:11:22.403Z,39.03
2017-11-30T14:13:50.493Z,44.83
2017-11-30T14:16:19.358Z,39.53
2017-11-30T14:18:47.838Z,42.17
2017-11-30T14:21:15.986Z,45.93
2017-11-30T14:23:46.159Z,40.40
2017-11-30T14:26:14.233Z,41.90
2017-11-30T14:28:43.206Z,45.10
2017-11-30T14:31:11.354Z,40.45
2017-11-30T14:33:39.438Z,40.97
2017-11-30T14:36:08.305Z,45.35
2017-11-30T14:38:36.917Z,40.80
2017-11-30T14:41:05.363Z,52.28
2017-11-30T14:43:33.459Z,44.58
2017-11-30T14:46:02.470Z,44.35
2017-11-30T14:48:30.546Z,45.55
2017-11-30T14:50:58.610Z,47.10
2017-11-30T14:53:27.837Z,45.20
2017-11-30T14:55:55.906Z,48.97
2017-11-30T14:58:23.992Z,43.42
2017-11-30T15:00:52.103Z,43.90
2017-11-30T15:03:20.175Z,44.50
2017-11-30T15:05:48.266Z,45.10
2017-11-30T15:08:16.334Z,53.20
2017-11-30T15:10:45.473Z,57.08
2017-11-30T15:13:13.531Z,56.60
2017-11-30T15:15:41.673Z,58.50
2017-11-30T15:18:09.742Z,55.50
2017-11-30T15:20:37.923Z,57.97
2017-11-30T15:23:07.541Z,56.17
2017-11-30T15:25:36.395Z,76.62
2017-11-30T15:28:04.511Z,55.63
2017-11-30T15:30:32.643Z,61.58
2017-11-30T15:33:01.530Z,66.60
2017-11-30T15:35:29.605Z,65.65
2017-11-30T15:37:57.670Z,72.50
2017-11-30T15:40:25.742Z,58.40
2017-11-30T15:42:53.807Z,62.92
2017-11-30T15:45:21.861Z,58.92
2017-11-30T15:47:49.937Z,59.30
2017-11-30T15:50:18.005Z,52.78
2017-11-30T15:52:46.074Z,58.22
2017-11-30T15:55:14.148Z,69.68
2017-11-30T15:57:42.211Z,61.90
2017-11-30T16:00:10.287Z,76.32
2017-11-30T16:02:38.362Z,59.50
2017-11-30T16:05:06.454Z,58.83
2017-11-30T16:07:34.514Z,71.50
2017-11-30T16:10:02.655Z,61.92
2017-11-30T16:12:31.259Z,57.80
2017-11-30T16:14:59.328Z,59.47
2017-11-30T16:17:27.400Z,61.47
2017-11-30T16:19:55.469Z,45.70
2017-11-30T16:22:23.541Z,45.25
2017-11-30T16:24:51.613Z,55.40
2017-11-30T16:27:19.682Z,46.17
2017-11-30T16:29:47.753Z,49.85
2017-11-30T16:32:15.824Z,49.53
2017-11-30T16:34:43.895Z,49.13
2017-11-30T16:37:11.968Z,53.33
2017-11-30T16:39:40.162Z,63.03
2017-11-30T16:42:08.235Z,51.40
2017-11-30T16:44:36.309Z,57.53
2017-11-30T16:47:08.141Z,50.85
2017-11-30T16:49:36.198Z,52.15
2017-11-30T16:52:14.174Z,50.20
2017-11-30T16:54:42.558Z,46.70
2017-11-30T16:57:10.635Z,52.45
2017-11-30T16:59:38.698Z,55.47
2017-11-30T17:02:06.813Z,44.45
2017-11-30T17:04:34.882Z,54.38
2017-11-30T17:07:03.055Z,45.63
2017-11-30T17:09:32.991Z,43.22
2017-11-30T17:12:01.868Z,53.78
2017-11-30T17:14:29.939Z,39.47
2017-11-30T17:16:58.012Z,44.88
2017-11-30T17:19:26.072Z,45.03
2017-11-30T17:21:54.161Z,43.60
2017-11-30T17:24:22.990Z,43.65
2017-11-30T17:26:51.120Z,40.72
2017-11-30T17:29:19.198Z,39.92
2017-11-30T17:31:48.170Z,46.95
2017-11-30T17:34:16.264Z,41.25
2017-11-30T17:36:45.855Z,41.63
2017-11-30T17:39:14.694Z,45.05
2017-11-30T17:41:42.818Z,43.25
2017-11-30T17:44:10.891Z,40.35
2017-11-30T17:46:38.966Z,45.17
2017-11-30T17:49:07.810Z,48.95
2017-11-30T17:51:35.879Z,40.53
2017-11-30T17:54:03.942Z,43.60
2017-11-30T17:56:32.034Z,46.63
2017-11-30T17:59:00.107Z,51.97
2017-11-30T18:01:28.353Z,45.17
2017-11-30T18:03:56.728Z,51.63
2017-11-30T18:06:24.790Z,45.38
2017-11-30T18:08:52.857Z,59.47
2017-11-30T18:11:20.940Z,46.72
2017-11-30T18:13:49.007Z,46.85
2017-11-30T18:16:17.079Z,51.20
2017-11-30T18:18:45.150Z,49.58
2017-11-30T18:21:13.221Z,45.72
2017-11-30T18:23:41.285Z,51.75
2017-11-30T18:26:09.346Z,51.72
2017-11-30T18:28:37.627Z,48.83
2017-11-30T18:31:05.720Z,49.15
2017-11-30T18:33:33.768Z,48.45
2017-11-30T18:36:01.844Z,44.45
2017-11-30T18:38:29.941Z,49.58
2017-11-30T18:40:58.043Z,52.08
2017-11-30T18:43:26.114Z,50.25
2017-11-30T18:45:54.197Z,50.95
2017-11-30T18:48:23.335Z,66.93
2017-11-30T18:50:51.402Z,51.22
2017-11-30T18:53:19.475Z,46.78
2017-11-30T18:55:47.547Z,49.55
2017-11-30T18:58:15.642Z,50.65
2017-11-30T19:00:43.714Z,53.63
2017-11-30T19:03:12.140Z,55.97
2017-11-30T19:51:33.706Z,53.75
2017-11-30T19:54:01.753Z,52.15
2017-11-30T19:56:29.828Z,49.30
2017-11-30T19:58:57.887Z,53.75
2017-11-30T20:01:25.978Z,63.90
2017-11-30T20:03:54.049Z,54.38
2017-11-30T20:06:22.137Z,60.75
2017-11-30T20:08:50.296Z,50.83
2017-11-30T20:11:18.367Z,52.85
2017-11-30T20:13:46.437Z,56.05
2017-11-30T20:16:14.511Z,54.90
2017-11-30T20:18:42.581Z,49.60
2017-11-30T20:21:10.647Z,51.75
2017-11-30T20:23:38.714Z,51.78
2017-11-30T20:26:06.810Z,53.80
2017-11-30T20:28:34.964Z,58.45
2017-11-30T20:31:03.026Z,53.30
2017-11-30T20:33:31.186Z,53.80
2017-11-30T20:36:00.149Z,58.92
2017-11-30T20:38:29.082Z,53.75
2017-11-30T20:40:57.159Z,51.97
2017-11-30T20:43:25.234Z,64.18
2017-11-30T20:45:53.368Z,56.47
2017-11-30T20:48:31.408Z,56.28
2017-11-30T20:51:01.080Z,55.88
2017-11-30T20:53:29.153Z,56.15
2017-11-30T20:55:57.350Z,60.92
2017-11-30T20:58:25.422Z,58.58
2017-11-30T21:00:53.495Z,61.80
2017-11-30T21:03:21.581Z,61.88
2017-11-30T21:05:50.482Z,56.90
2017-11-30T21:08:20.505Z,61.20
2017-11-30T21:10:48.550Z,66.60
2017-11-30T21:13:16.633Z,64.37
2017-11-30T21:15:44.786Z,59.92
2017-11-30T21:18:12.961Z,61.10
2017-11-30T21:20:41.034Z,61.28
2017-11-30T21:23:09.094Z,58.60
2017-11-30T21:25:37.181Z,65.30
2017-11-30T21:28:05.347Z,52.85
2017-11-30T21:30:33.510Z,69.30
2017-11-30T21:33:01.578Z,58.33
2017-11-30T21:35:29.651Z,69.22
2017-11-30T21:37:57.718Z,69.35
2017-11-30T21:40:25.794Z,80.95
2017-11-30T21:42:53.867Z,61.63
2017-11-30T21:45:21.939Z,55.50
2017-11-30T21:47:50.003Z,50.28
2017-11-30T21:50:18.091Z,63.25
2017-11-30T21:52:47.393Z,54.08
2017-11-30T21:55:15.535Z,53.60
2017-11-30T21:57:43.607Z,59.13
2017-11-30T22:00:11.674Z,60.63
2017-11-30T22:02:39.747Z,50.58
2017-11-30T22:05:07.814Z,56.15
2017-11-30T22:07:35.897Z,51.25
2017-11-30T22:10:03.965Z,50.17
2017-11-30T22:12:32.058Z,54.20
2017-11-30T22:15:01.007Z,53.20
2017-11-30T22:17:29.105Z,50.58
2017-11-30T22:19:57.182Z,52.80
2017-11-30T22:22:25.249Z,51.37
2017-11-30T22:24:53.322Z,45.00
2017-11-30T22:27:21.426Z,46.40
2017-11-30T22:29:50.265Z,49.28
2017-11-30T22:32:18.368Z,46.65
2017-11-30T22:34:46.438Z,47.80
2017-11-30T22:37:14.803Z,40.22
2017-11-30T22:39:42.880Z,50.70
2017-11-30T22:42:10.946Z,44.78
2017-11-30T22:44:39.031Z,46.00
2017-11-30T22:47:07.719Z,45.42
2017-11-30T22:49:35.787Z,39.60
2017-11-30T22:52:03.952Z,39.67
2017-11-30T22:54:32.031Z,41.85
2017-11-30T22:57:00.093Z,36.00
2017-11-30T22:59:28.158Z,45.25
2017-11-30T23:01:56.231Z,45.08
2017-11-30T23:04:24.305Z,37.75
2017-11-30T23:06:52.375Z,34.33
2017-11-30T23:09:20.447Z,41.42
2017-11-30T23:11:48.534Z,40.38
2017-11-30T23:14:17.388Z,35.85
2017-11-30T23:16:45.458Z,37.47
2017-11-30T23:19:13.563Z,41.60
2017-11-30T23:21:42.405Z,35.95
2017-11-30T23:24:10.474Z,42.65
2017-11-30T23:26:38.594Z,41.15
2017-11-30T23:29:06.614Z,41.65
2017-11-30T23:31:34.686Z,52.17
2017-11-30T23:34:02.751Z,39.08
2017-11-30T23:36:30.840Z,42.85
2017-11-30T23:38:58.899Z,40.15
2017-11-30T23:41:26.971Z,45.92
2017-11-30T23:43:55.038Z,47.20
2017-11-30T23:46:23.118Z,43.92
2017-11-30T23:48:51.206Z,43.70
2017-11-30T23:51:19.298Z,43.55
2017-11-30T23:53:47.424Z,38.58
2017-11-30T23:56:15.548Z,49.75
2017-11-30T23:58:44.382Z,52.88
